Vigus, Missouri
Current Conditions -  °F | °C
As of 12:51 AM on Saturday 29 Nov 2014 (Local Time) from KSTL Reporting Station
Scattered Clouds Scattered Clouds  
Wind Chill: 40°   Ceiling: Unl
Heat Index: 44°   Visibility: 10mi
Dew Point: 34°   Wind: 7mph
Humidity: 68%   Direction: 160°SSE
Pressure: 29.86"   Gusts: NA
Location:  38.7849°N, 90.3852°W
Report Text: KSTL 290651Z 16006KT 10SM SCT250 07/01 A2986 RMK AO2 SLP113 T00670011
Loading
Personal Weather Stations






























Interactive Weather Map New forecast layout! Learn more

10-Day Weather Forecast

Advertisements
Track Severe Weather on mobile